createdAt,value
2019-05-05T00:01:34.441Z,96761.67
2019-05-05T00:04:15.926Z,96753.85
2019-05-05T00:06:44.530Z,96760.97
2019-05-05T00:09:10.865Z,96762.26
2019-05-05T00:11:50.205Z,96762.27
2019-05-05T00:14:19.563Z,96758.31
2019-05-05T00:16:47.964Z,96761.55
2019-05-05T00:19:29.491Z,96761.75
2019-05-05T00:21:44.586Z,96767.94
2019-05-05T00:24:11.707Z,96768.30
2019-05-05T00:26:39.183Z,96770.63
2019-05-05T00:29:06.716Z,96771.20
2019-05-05T00:31:34.884Z,96774.27
2019-05-05T00:34:01.754Z,96769.84
2019-05-05T00:36:29.195Z,96774.41
2019-05-05T00:38:56.681Z,96775.17
2019-05-05T00:41:25.354Z,96771.90
2019-05-05T00:43:51.712Z,96781.88
2019-05-05T00:46:21.142Z,96766.02
2019-05-05T00:48:48.628Z,96771.53
2019-05-05T00:51:16.089Z,96770.42
2019-05-05T00:53:44.892Z,96772.36
2019-05-05T00:56:14.298Z,96776.09
2019-05-05T00:58:40.146Z,96778.75
2019-05-05T01:01:11.179Z,96786.25
2019-05-05T01:03:38.615Z,96785.26
2019-05-05T01:06:09.522Z,96786.89
2019-05-05T01:11:10.946Z,96778.41
2019-05-05T01:13:38.727Z,96781.33
2019-05-05T01:16:06.176Z,96783.87
2019-05-05T01:18:35.171Z,96783.52
2019-05-05T01:21:01.126Z,96786.95
2019-05-05T01:23:36.420Z,96784.25
2019-05-05T01:26:05.074Z,96773.44
2019-05-05T01:28:31.483Z,96768.05
2019-05-05T01:30:58.977Z,96775.16
2019-05-05T01:33:40.169Z,96777.34
2019-05-05T01:36:07.651Z,96774.06
2019-05-05T01:38:45.067Z,96776.67
2019-05-05T01:41:18.213Z,96775.20
2019-05-05T01:43:45.782Z,96773.95
2019-05-05T01:46:14.324Z,96770.53
2019-05-05T01:48:40.852Z,96767.63
2019-05-05T01:51:08.305Z,96764.88
2019-05-05T01:53:35.746Z,96764.05
2019-05-05T01:56:04.882Z,96761.34
2019-05-05T01:58:30.742Z,96762.18
2019-05-05T02:00:58.199Z,96761.80
2019-05-05T02:03:25.639Z,96758.38
2019-05-05T02:05:54.585Z,96761.50
2019-05-05T02:08:21.474Z,96761.08
2019-05-05T02:10:48.929Z,96764.25
2019-05-05T02:13:16.374Z,96760.75
2019-05-05T02:15:44.562Z,96758.77
2019-05-05T02:18:11.381Z,96766.36
2019-05-05T02:20:45.089Z,96771.03
2019-05-05T02:23:12.062Z,96770.61
2019-05-05T02:25:39.505Z,96772.05
2019-05-05T02:28:08.183Z,96771.57
2019-05-05T02:30:38.160Z,96779.45
2019-05-05T02:33:16.459Z,96771.65
2019-05-05T02:35:45.929Z,96767.81
2019-05-05T02:38:11.434Z,96775.58
2019-05-05T02:40:38.898Z,96780.05
2019-05-05T02:43:06.346Z,96788.41
2019-05-05T02:45:44.235Z,96774.62
2019-05-05T02:48:14.878Z,96775.46
2019-05-05T02:50:52.455Z,96779.36
2019-05-05T02:53:14.210Z,96779.66
2019-05-05T02:55:39.469Z,96790.11
2019-05-05T02:58:06.923Z,96787.66
2019-05-05T03:03:26.767Z,96785.20
2019-05-05T03:05:54.302Z,96773.38
2019-05-05T03:08:21.758Z,96776.45
2019-05-05T03:10:49.360Z,96779.16
2019-05-05T03:13:16.831Z,96770.23
2019-05-05T03:15:45.059Z,96774.91
2019-05-05T03:18:13.437Z,96770.07
2019-05-05T03:20:40.069Z,96778.70
2019-05-05T03:23:07.511Z,96774.22
2019-05-05T03:25:34.950Z,96769.17
2019-05-05T03:28:04.328Z,96783.63
2019-05-05T03:30:29.984Z,96788.23
2019-05-05T03:32:57.445Z,96781.30
2019-05-05T03:35:24.915Z,96778.13
2019-05-05T03:37:54.356Z,96781.31
2019-05-05T03:40:19.895Z,96784.13
2019-05-05T03:42:48.781Z,96786.34
2019-05-05T03:45:16.307Z,96777.20
2019-05-05T03:47:44.138Z,96783.27
2019-05-05T03:50:11.356Z,96770.91
2019-05-05T03:52:38.807Z,96783.91
2019-05-05T03:55:07.058Z,96776.14
2019-05-05T03:57:34.548Z,96772.02
2019-05-05T04:00:04.182Z,96774.83
2019-05-05T04:02:34.066Z,96774.58
2019-05-05T04:05:04.030Z,96779.77
2019-05-05T04:07:29.939Z,96760.17
2019-05-05T04:09:57.399Z,96767.77
2019-05-05T04:12:24.861Z,96771.61
2019-05-05T04:14:54.434Z,96771.83
2019-05-05T04:17:24.453Z,96774.27
2019-05-05T04:19:50.630Z,96778.72
2019-05-05T04:22:18.058Z,96777.42
2019-05-05T04:24:45.525Z,96781.06
2019-05-05T04:27:14.655Z,96770.61
2019-05-05T04:29:40.533Z,96771.34
2019-05-05T04:32:08.067Z,96776.28
2019-05-05T04:34:35.515Z,96779.56
2019-05-05T04:37:04.115Z,96787.34
2019-05-05T04:39:30.449Z,96784.23
2019-05-05T04:41:57.980Z,96786.86
2019-05-05T04:44:25.448Z,96787.70
2019-05-05T04:46:54.584Z,96789.57
2019-05-05T04:49:25.891Z,96792.20
2019-05-05T04:54:50.420Z,96780.88
2019-05-05T04:57:17.907Z,96791.36
2019-05-05T04:59:45.371Z,96787.00
2019-05-05T05:05:24.560Z,96797.52
2019-05-05T05:07:53.812Z,96806.80
2019-05-05T05:10:19.516Z,96795.74
2019-05-05T05:12:46.963Z,96806.31
2019-05-05T05:15:14.745Z,96805.30
2019-05-05T05:17:44.314Z,96797.56
2019-05-05T05:20:10.541Z,96805.02
2019-05-05T05:22:38.092Z,96807.55
2019-05-05T05:25:05.586Z,96802.66
2019-05-05T05:27:33.581Z,96806.89
2019-05-05T05:30:00.532Z,96813.13
2019-05-05T05:32:27.987Z,96815.01
2019-05-05T05:34:55.445Z,96816.16
2019-05-05T05:37:23.978Z,96819.66
2019-05-05T05:40:03.950Z,96821.83
2019-05-05T05:42:30.691Z,96826.48
2019-05-05T05:47:57.066Z,96831.33
2019-05-05T05:50:27.160Z,96829.06
2019-05-05T05:52:54.612Z,96836.45
2019-05-05T05:55:23.775Z,96842.62
2019-05-05T05:57:49.679Z,96829.09
2019-05-05T06:00:17.254Z,96835.22
2019-05-05T06:02:44.782Z,96843.39
2019-05-05T06:05:12.238Z,96845.02
2019-05-05T06:07:39.761Z,96846.45
2019-05-05T06:10:20.570Z,96848.95
2019-05-05T06:12:34.777Z,96847.89
2019-05-05T06:15:03.485Z,96851.39
2019-05-05T06:17:29.265Z,96854.77
2019-05-05T06:19:56.706Z,96855.88
2019-05-05T06:22:29.392Z,96852.66
2019-05-05T06:24:53.954Z,96850.70
2019-05-05T06:27:19.407Z,96844.97
2019-05-05T06:29:46.850Z,96846.75
2019-05-05T06:32:14.730Z,96848.48
2019-05-05T06:34:41.804Z,96849.88
2019-05-05T06:37:09.284Z,96847.45
2019-05-05T06:39:36.733Z,96848.85
2019-05-05T06:42:20.040Z,96849.20
2019-05-05T06:44:48.340Z,96851.63
2019-05-05T06:47:15.811Z,96858.41
2019-05-05T06:49:43.870Z,96858.45
2019-05-05T06:52:10.788Z,96857.44
2019-05-05T06:54:38.539Z,96862.06
2019-05-05T06:57:06.005Z,96864.00
2019-05-05T06:59:35.008Z,96857.22
2019-05-05T07:02:01.062Z,96858.33
2019-05-05T07:04:28.063Z,96850.34
2019-05-05T07:06:57.188Z,96852.59
2019-05-05T07:09:24.474Z,96858.31
2019-05-05T07:11:51.021Z,96853.06
2019-05-05T07:14:18.507Z,96845.44
2019-05-05T07:16:46.022Z,96852.23
2019-05-05T07:19:14.672Z,96848.00
2019-05-05T07:21:41.112Z,96851.78
2019-05-05T07:24:08.593Z,96848.20
2019-05-05T07:26:36.036Z,96849.20
2019-05-05T07:29:04.593Z,96854.77
2019-05-05T07:31:31.232Z,96851.64
2019-05-05T07:33:58.790Z,96851.78
2019-05-05T07:36:33.899Z,96849.33
2019-05-05T07:38:59.441Z,96855.32
2019-05-05T07:41:26.450Z,96848.82
2019-05-05T07:43:54.272Z,96850.43
2019-05-05T07:46:21.473Z,96856.94
2019-05-05T07:48:48.923Z,96856.47
2019-05-05T07:51:16.567Z,96857.63
2019-05-05T07:53:44.448Z,96856.55
2019-05-05T07:56:11.637Z,96859.99
2019-05-05T07:58:39.121Z,96856.55
2019-05-05T08:01:06.619Z,96862.94
2019-05-05T08:03:34.110Z,96866.45
2019-05-05T08:06:03.805Z,96852.27
2019-05-05T08:08:29.067Z,96854.35
2019-05-05T08:10:56.531Z,96863.02
2019-05-05T08:13:24.392Z,96863.80
2019-05-05T08:15:59.100Z,96872.69
2019-05-05T08:18:21.895Z,96864.83
2019-05-05T08:20:49.882Z,96863.48
2019-05-05T08:23:30.239Z,96871.33
2019-05-05T08:25:48.486Z,96867.19
2019-05-05T08:28:18.408Z,96862.27
2019-05-05T08:30:47.071Z,96871.59
2019-05-05T08:33:14.507Z,96875.23
2019-05-05T08:35:41.964Z,96870.14
2019-05-05T08:38:09.409Z,96874.28
2019-05-05T08:40:36.866Z,96878.66
2019-05-05T08:43:04.565Z,96877.55
2019-05-05T08:45:31.438Z,96871.69
2019-05-05T08:47:58.901Z,96889.34
2019-05-05T08:50:27.110Z,96881.76
2019-05-05T08:52:53.876Z,96888.43
2019-05-05T08:55:21.456Z,96899.22
2019-05-05T08:57:49.119Z,96888.48
2019-05-05T09:00:16.640Z,96886.36
2019-05-05T09:02:44.138Z,96890.35
2019-05-05T09:05:11.624Z,96888.89
2019-05-05T09:07:39.076Z,96889.75
2019-05-05T09:10:06.606Z,96878.36
2019-05-05T09:12:34.059Z,96899.18
2019-05-05T09:15:01.519Z,96908.75
2019-05-05T09:17:29.430Z,96908.75
2019-05-05T09:19:57.061Z,96913.14
2019-05-05T09:22:24.681Z,96915.20
2019-05-05T09:27:45.773Z,96912.73
2019-05-05T09:30:14.260Z,96914.20
2019-05-05T09:32:40.970Z,96935.54
2019-05-05T09:35:08.481Z,96915.38
2019-05-05T09:37:35.962Z,96920.95
2019-05-05T09:40:04.487Z,96926.91
2019-05-05T09:42:31.086Z,96929.11
2019-05-05T09:44:58.602Z,96926.88
2019-05-05T09:47:26.063Z,96939.78
2019-05-05T09:49:54.979Z,96941.98
2019-05-05T09:52:21.011Z,96935.48
2019-05-05T09:54:48.453Z,96939.12
2019-05-05T09:57:15.941Z,96935.59
2019-05-05T09:59:44.175Z,96940.80
2019-05-05T10:02:11.015Z,96950.24
2019-05-05T10:04:38.503Z,96938.61
2019-05-05T10:07:05.959Z,96952.22
2019-05-05T10:09:34.510Z,96949.48
2019-05-05T10:12:01.179Z,96955.82
2019-05-05T10:14:28.764Z,96961.59
2019-05-05T10:16:56.204Z,96962.55
2019-05-05T10:19:24.329Z,96961.02
2019-05-05T10:21:51.179Z,96961.83
2019-05-05T10:27:10.835Z,96963.43
2019-05-05T10:29:38.309Z,96981.24
2019-05-05T10:32:05.878Z,96972.80
2019-05-05T10:34:33.555Z,96969.53
2019-05-05T10:37:00.882Z,96963.05
2019-05-05T10:39:30.880Z,96973.71
2019-05-05T10:41:58.322Z,96973.01
2019-05-05T10:44:25.829Z,96974.84
2019-05-05T10:46:53.942Z,96969.88
2019-05-05T10:49:20.790Z,96976.33
2019-05-05T10:51:48.235Z,96965.40
2019-05-05T10:54:15.682Z,96982.22
2019-05-05T10:56:43.147Z,96973.00
2019-05-05T10:59:10.623Z,96969.91
2019-05-05T11:01:38.084Z,96971.45
2019-05-05T11:04:05.085Z,96984.43
2019-05-05T11:06:32.215Z,96954.85
2019-05-05T11:08:59.382Z,96973.64
2019-05-05T11:11:26.845Z,96973.97
2019-05-05T11:13:54.372Z,96981.56
2019-05-05T11:16:21.782Z,96977.73
2019-05-05T11:18:49.260Z,96972.66
2019-05-05T11:21:16.715Z,96994.67
2019-05-05T11:23:44.816Z,96998.91
2019-05-05T11:26:14.081Z,96996.43
2019-05-05T11:28:39.459Z,96977.41
2019-05-05T11:31:06.946Z,96988.52
2019-05-05T11:33:37.022Z,96979.25
2019-05-05T11:36:07.551Z,96986.72
2019-05-05T11:38:35.039Z,96985.84
2019-05-05T11:41:04.781Z,96980.05
2019-05-05T11:43:30.111Z,96983.67
2019-05-05T11:45:57.688Z,96980.24
2019-05-05T11:48:25.138Z,96979.64
2019-05-05T11:50:54.022Z,96994.52
2019-05-05T11:53:19.177Z,96996.73
2019-05-05T11:55:46.180Z,97002.91
2019-05-05T11:58:14.396Z,97007.28
2019-05-05T12:00:40.204Z,96999.33
2019-05-05T12:03:07.212Z,97007.45
2019-05-05T12:05:34.217Z,97001.88
2019-05-05T12:08:01.242Z,97000.04
2019-05-05T12:10:43.938Z,96992.69
2019-05-05T12:13:11.272Z,97002.33
2019-05-05T12:15:38.356Z,97000.89
2019-05-05T12:18:05.373Z,96995.68
2019-05-05T12:20:33.707Z,97000.59
2019-05-05T12:23:00.316Z,97005.31
2019-05-05T12:25:32.962Z,97001.84
2019-05-05T12:28:01.434Z,97008.22
2019-05-05T12:30:28.430Z,96995.09
2019-05-05T12:32:55.493Z,97010.66
2019-05-05T12:35:23.562Z,97007.75
2019-05-05T12:37:50.438Z,97013.19
2019-05-05T12:40:17.513Z,97008.59
2019-05-05T12:42:45.138Z,97017.26
2019-05-05T12:45:13.778Z,97000.83
2019-05-05T12:47:42.116Z,97000.23
2019-05-05T12:50:09.246Z,97000.64
2019-05-05T12:52:36.324Z,97003.06
2019-05-05T12:55:05.105Z,97005.16
2019-05-05T12:57:30.584Z,97015.09
2019-05-05T12:59:57.619Z,97018.15
2019-05-05T13:02:24.779Z,97002.16
2019-05-05T13:04:53.464Z,97011.52
2019-05-05T13:07:19.115Z,97015.55
2019-05-05T13:09:46.571Z,97009.33
2019-05-05T13:12:15.137Z,96997.84
2019-05-05T13:14:43.888Z,97007.59
2019-05-05T13:17:09.636Z,97005.98
2019-05-05T13:22:34.984Z,97001.53
2019-05-05T13:27:59.932Z,97005.30
2019-05-05T13:30:26.960Z,97017.22
2019-05-05T13:32:54.540Z,97010.38
2019-05-05T13:35:23.434Z,97006.72
2019-05-05T13:37:48.558Z,97013.80
2019-05-05T13:40:15.559Z,97002.02
2019-05-05T13:42:43.993Z,97009.81
2019-05-05T13:45:14.401Z,97006.70
2019-05-05T13:47:39.989Z,97015.53
2019-05-05T13:50:08.451Z,97010.84
2019-05-05T13:52:36.017Z,97006.80
2019-05-05T13:55:03.510Z,96997.23
2019-05-05T13:57:30.969Z,97002.94
2019-05-05T13:59:58.420Z,97005.73
2019-05-05T14:02:25.877Z,97005.61
2019-05-05T14:04:54.190Z,97003.88
2019-05-05T14:07:20.975Z,97006.01
2019-05-05T14:09:48.439Z,97010.63
2019-05-05T14:12:15.918Z,96992.97
2019-05-05T14:14:44.074Z,97010.98
2019-05-05T14:17:10.854Z,97014.61
2019-05-05T14:19:38.443Z,97019.83
2019-05-05T14:22:05.980Z,97020.39
2019-05-05T14:24:35.988Z,97024.08
2019-05-05T14:27:04.510Z,97014.74
2019-05-05T14:29:34.626Z,97020.34
2019-05-05T14:32:01.703Z,97012.93
2019-05-05T14:34:29.164Z,97021.65
2019-05-05T14:37:02.043Z,97019.47
2019-05-05T14:39:29.597Z,97012.45
2019-05-05T14:41:57.229Z,97008.23
2019-05-05T14:44:24.772Z,97013.80
2019-05-05T14:46:52.240Z,97012.96
2019-05-05T14:49:19.689Z,97026.04
2019-05-05T14:51:47.165Z,97023.35
2019-05-05T14:54:14.990Z,97030.27
2019-05-05T14:56:44.037Z,97026.41
2019-05-05T14:59:09.763Z,97040.28
2019-05-05T15:01:37.220Z,97044.37
2019-05-05T15:04:04.785Z,97045.88
2019-05-05T15:06:34.446Z,97037.22
2019-05-05T15:09:03.775Z,97032.92
2019-05-05T15:14:25.935Z,97046.28
2019-05-05T15:16:54.317Z,97039.06
2019-05-05T15:19:20.980Z,97045.97
2019-05-05T15:21:48.949Z,97041.92
2019-05-05T15:24:16.174Z,97045.98
2019-05-05T15:26:51.902Z,97036.22
2019-05-05T15:29:11.118Z,97036.63
2019-05-05T15:31:38.566Z,97036.68
2019-05-05T15:34:06.082Z,97037.61
2019-05-05T15:36:34.638Z,97037.25
2019-05-05T15:39:02.087Z,97033.27
2019-05-05T15:41:29.586Z,97039.45
2019-05-05T15:43:57.215Z,97042.08
2019-05-05T15:46:24.787Z,97042.77
2019-05-05T15:48:54.426Z,97036.65
2019-05-05T15:51:19.788Z,97035.75
2019-05-05T15:53:47.226Z,97027.48
2019-05-05T15:56:14.792Z,97034.99
2019-05-05T15:58:43.520Z,97042.43
2019-05-05T16:01:10.099Z,97035.77
2019-05-05T16:03:37.556Z,97041.87
2019-05-05T16:06:05.045Z,97046.30
2019-05-05T16:08:34.006Z,97054.59
2019-05-05T16:10:59.997Z,97049.37
2019-05-05T16:13:27.470Z,97049.50
2019-05-05T16:15:55.780Z,97046.39
2019-05-05T16:18:23.871Z,97055.52
2019-05-05T16:20:51.357Z,97058.47
2019-05-05T16:23:35.630Z,97058.75
2019-05-05T16:26:01.147Z,97044.10
2019-05-05T16:28:28.629Z,97060.89
2019-05-05T16:30:56.344Z,97059.50
2019-05-05T16:33:24.195Z,97056.89
2019-05-05T16:35:51.203Z,97061.20
2019-05-05T16:38:18.667Z,97067.17
2019-05-05T16:40:46.117Z,97065.17
2019-05-05T16:43:14.120Z,97064.39
2019-05-05T16:45:41.183Z,97068.75
2019-05-05T16:48:08.691Z,97058.16
2019-05-05T16:50:36.833Z,97077.16
2019-05-05T16:53:05.130Z,97073.08
2019-05-05T16:55:38.151Z,97063.88
2019-05-05T16:58:06.746Z,97075.14
2019-05-05T17:00:34.516Z,97071.38
2019-05-05T17:03:00.580Z,97078.64
2019-05-05T17:05:28.014Z,97074.02
2019-05-05T17:07:56.413Z,97076.89
2019-05-05T17:10:24.409Z,97089.55
2019-05-05T17:12:50.627Z,97088.59
2019-05-05T17:15:18.869Z,97094.26
2019-05-05T17:17:46.347Z,97097.45
2019-05-05T17:20:13.956Z,97102.50
2019-05-05T17:22:48.485Z,97107.91
2019-05-05T17:25:15.980Z,97118.11
2019-05-05T17:27:48.521Z,97120.77
2019-05-05T17:30:11.371Z,97114.82
2019-05-05T17:32:38.984Z,97118.92
2019-05-05T17:35:06.474Z,97117.88
2019-05-05T17:37:33.989Z,97124.08
2019-05-05T17:40:08.524Z,97115.28
2019-05-05T17:42:40.759Z,97115.28
2019-05-05T17:45:14.092Z,97116.97
2019-05-05T17:47:40.009Z,97118.77
2019-05-05T17:53:14.895Z,97115.55
2019-05-05T17:55:41.013Z,97114.41
2019-05-05T17:58:10.428Z,97115.52
2019-05-05T18:00:37.964Z,97109.90
2019-05-05T18:03:05.570Z,97105.95
2019-05-05T18:05:38.627Z,97116.91
2019-05-05T18:08:06.127Z,97106.44
2019-05-05T18:10:39.618Z,97119.33
2019-05-05T18:13:12.046Z,97114.44
2019-05-05T18:15:48.014Z,97115.17
2019-05-05T18:18:13.916Z,97115.13
2019-05-05T18:20:40.290Z,97112.70
2019-05-05T18:23:07.819Z,97123.08
2019-05-05T18:25:35.259Z,97116.29
2019-05-05T18:28:15.364Z,97121.06
2019-05-05T18:30:30.228Z,97125.52
2019-05-05T18:32:57.750Z,97126.00
2019-05-05T18:35:25.561Z,97125.50
2019-05-05T18:37:54.423Z,97123.86
2019-05-05T18:40:20.577Z,97137.28
2019-05-05T18:42:48.139Z,97133.17
2019-05-05T18:45:16.190Z,97138.53
2019-05-05T18:47:43.659Z,97145.42
2019-05-05T18:50:11.135Z,97144.59
2019-05-05T18:52:38.580Z,97151.59
2019-05-05T18:55:06.073Z,97150.28
2019-05-05T18:57:34.188Z,97151.59
2019-05-05T19:00:01.164Z,97157.87
2019-05-05T19:02:31.211Z,97156.55
2019-05-05T19:05:04.770Z,97162.54
2019-05-05T19:07:36.118Z,97170.31
2019-05-05T19:10:04.000Z,97167.02
2019-05-05T19:12:31.114Z,97168.66
2019-05-05T19:14:58.595Z,97172.53
2019-05-05T19:17:28.573Z,97169.43
2019-05-05T19:19:54.914Z,97171.99
2019-05-05T19:22:22.070Z,97177.88
2019-05-05T19:24:49.522Z,97181.42
2019-05-05T19:27:17.052Z,97185.88
2019-05-05T19:29:46.327Z,97184.27
2019-05-05T19:32:12.206Z,97187.70
2019-05-05T19:34:39.662Z,97194.13
2019-05-05T19:37:07.098Z,97197.98
2019-05-05T19:39:34.580Z,97188.06
2019-05-05T19:42:02.050Z,97194.52
2019-05-05T19:44:29.669Z,97195.47
2019-05-05T19:47:05.673Z,97195.17
2019-05-05T19:49:30.119Z,97199.69
2019-05-05T19:51:57.575Z,97203.72
2019-05-05T19:54:25.135Z,97209.34
2019-05-05T19:56:54.263Z,97210.25
2019-05-05T19:59:20.482Z,97207.27
2019-05-05T20:01:48.069Z,97214.88
2019-05-05T20:04:15.531Z,97211.67
2019-05-05T20:06:44.199Z,97220.14
2019-05-05T20:09:10.635Z,97218.99
2019-05-05T20:11:38.105Z,97215.72
2019-05-05T20:14:09.985Z,97212.95
2019-05-05T20:16:47.674Z,97223.70
2019-05-05T20:19:15.122Z,97214.55
2019-05-05T20:21:43.913Z,97214.71
2019-05-05T20:24:10.189Z,97216.09
2019-05-05T20:26:37.705Z,97212.83
2019-05-05T20:29:13.898Z,97219.45
2019-05-05T20:31:34.591Z,97216.02
2019-05-05T20:34:00.514Z,97214.70
2019-05-05T20:36:27.963Z,97214.88
2019-05-05T20:38:55.818Z,97211.37
2019-05-05T20:41:24.908Z,97214.30
2019-05-05T20:43:50.787Z,97215.17
2019-05-05T20:46:18.252Z,97216.07
2019-05-05T20:48:45.711Z,97212.34
2019-05-05T20:51:13.792Z,97209.19
2019-05-05T20:53:40.755Z,97216.34
2019-05-05T20:56:08.215Z,97213.63
2019-05-05T20:58:35.810Z,97211.74
2019-05-05T21:01:04.517Z,97220.28
2019-05-05T21:03:30.755Z,97216.63
2019-05-05T21:05:58.210Z,97219.77
2019-05-05T21:08:25.903Z,97211.28
2019-05-05T21:10:53.772Z,97204.74
2019-05-05T21:13:20.944Z,97208.72
2019-05-05T21:15:48.501Z,97214.09
2019-05-05T21:18:15.994Z,97214.52
2019-05-05T21:20:43.485Z,97215.04
2019-05-05T21:23:15.692Z,97216.23
2019-05-05T21:28:35.484Z,97223.44
2019-05-05T21:31:04.832Z,97220.02
2019-05-05T21:36:05.094Z,97223.70
2019-05-05T21:38:32.617Z,97225.53
2019-05-05T21:41:01.338Z,97219.64
2019-05-05T21:43:28.995Z,97226.37
2019-05-05T21:45:57.134Z,97222.46
2019-05-05T21:48:24.836Z,97223.36
2019-05-05T21:50:54.021Z,97218.22
2019-05-05T21:53:25.631Z,97227.98
2019-05-05T21:55:55.220Z,97217.36
2019-05-05T21:58:26.637Z,97229.66
2019-05-05T22:00:56.449Z,97223.91
2019-05-05T22:03:30.933Z,97215.91
2019-05-05T22:06:03.542Z,97228.20
2019-05-05T22:08:28.963Z,97229.88
2019-05-05T22:10:56.414Z,97231.38
2019-05-05T22:13:23.931Z,97236.84
2019-05-05T22:15:51.391Z,97228.58
2019-05-05T22:18:18.842Z,97231.59
2019-05-05T22:20:46.306Z,97231.27
2019-05-05T22:23:14.511Z,97228.05
2019-05-05T22:25:43.668Z,97223.05
2019-05-05T22:28:09.065Z,97223.91
2019-05-05T22:30:36.512Z,97226.05
2019-05-05T22:33:05.974Z,97226.22
2019-05-05T22:35:31.520Z,97221.63
2019-05-05T22:37:58.989Z,97213.81
2019-05-05T22:40:26.562Z,97221.52
2019-05-05T22:42:54.687Z,97220.89
2019-05-05T22:45:23.610Z,97219.85
2019-05-05T22:47:49.154Z,97211.77
2019-05-05T22:50:16.609Z,97213.34
2019-05-05T22:52:44.705Z,97220.59
2019-05-05T22:55:13.805Z,97218.55
2019-05-05T22:57:39.244Z,97217.89
2019-05-05T23:00:06.745Z,97211.11
2019-05-05T23:02:35.077Z,97222.00
2019-05-05T23:05:04.087Z,97218.27
2019-05-05T23:07:30.626Z,97224.45
2019-05-05T23:09:58.101Z,97226.80
2019-05-05T23:12:25.604Z,97220.45
2019-05-05T23:14:54.548Z,97223.34
2019-05-05T23:17:26.441Z,97224.44
2019-05-05T23:19:58.044Z,97225.58
2019-05-05T23:25:18.590Z,97220.87
2019-05-05T23:27:47.526Z,97215.44
2019-05-05T23:30:15.987Z,97223.80
2019-05-05T23:32:43.867Z,97223.55
2019-05-05T23:35:10.003Z,97219.98
2019-05-05T23:37:37.539Z,97213.21
2019-05-05T23:40:04.986Z,97218.79
2019-05-05T23:42:33.699Z,97218.53
2019-05-05T23:45:00.095Z,97216.34
2019-05-05T23:47:27.541Z,97216.29
2019-05-05T23:49:55.005Z,97211.61
2019-05-05T23:52:24.016Z,97213.80
2019-05-05T23:54:50.153Z,97208.42
2019-05-05T23:57:17.810Z,97213.99
2019-05-05T23:59:45.245Z,97207.19
